Tropical Cyclones
[Index]
Main Index Home Page Stock Weather Photos Extreme Storms Discussion Storm News and Storm Chasing Reports Tropical Cyclones / Hurricanes / Typhoons Weather Data and Links Wild Fires / Bushfires Weather Observation Techniques Weather Picture Catalogue Tornado Pictures and Reports Stock Video Footage and DVDs for sale
Season 2012-2013 Tropical Cyclone CLAUDIA Track Map
Season 2012-2013 Summaries: [BoM-AU] [JTWC-AU] [JTWC-SIO] [JTWC-SPAC] [JTWC-SH]
<<- Previous TC | JTWC 2012-2013 Season | Next TC ->>

click for intensity scale information  Lat/long Grid: Show Hide

 Date Labels: Show Hide

Joint Typhoon Warning Centre Cyclone Data

Name: CLAUDIA

03 Dec 2012 18:00 UTC to 13 Dec 2012 12:00 UTC

    date/time    lat    long     hPa   cat  kts
2012-12-03 18    7.4    84.7    1010         15          
2012-12-04 00    7.5    85.8    1010         15          
2012-12-04 06    8.6    85.7    1010         15          
2012-12-04 12    9.0    84.9    1010         15          
2012-12-04 18    9.8    84.0    1007         20          
2012-12-05 00   10.9    82.9    1007         20          
2012-12-05 06   11.6    81.5    1004         25          
2012-12-05 12   11.8    80.2    1004         25          
2012-12-05 18   11.9    79.4    1004         25          
2012-12-06 00   12.0    78.7    1000         30          
2012-12-06 06   12.2    78.0    1000         30          
2012-12-06 12   12.4    77.3     996         35          
2012-12-06 18   12.9    76.8     996         35          
2012-12-07 00   13.5    76.5     993    1    40          
2012-12-07 06   13.9    76.1     989    1    45          
2012-12-07 12   14.0    75.7     985    1    50          
2012-12-07 18   14.0    75.3     978    2    60          
2012-12-07 18   14.0    75.3     978    2    60          
2012-12-08 00   14.0    75.2     963    3    80          
2012-12-08 00   14.0    75.2     963    3    80          
2012-12-08 00   14.0    75.2     963    3    80          
2012-12-08 06   14.3    75.0     956    3    90          
2012-12-08 06   14.3    75.0     956    3    90          
2012-12-08 06   14.3    75.0     956    3    90          
2012-12-08 12   14.5    74.7     948    4   100          
2012-12-08 12   14.5    74.7     948    4   100          
2012-12-08 12   14.5    74.7     948    4   100          
2012-12-08 18   14.5    74.4     937    4   115          
2012-12-08 18   14.5    74.4     937    4   115          
2012-12-08 18   14.5    74.4     937    4   115          
2012-12-09 00   15.0    74.4     937    4   115          
2012-12-09 00   15.0    74.4     937    4   115          
2012-12-09 00   15.0    74.4     937    4   115          
2012-12-09 06   15.1    74.1     941    4   110          
2012-12-09 06   15.1    74.1     941    4   110          
2012-12-09 06   15.1    74.1     941    4   110          
2012-12-09 12   15.4    74.2     944    4   105          
2012-12-09 12   15.4    74.2     944    4   105          
2012-12-09 12   15.4    74.2     944    4   105          
2012-12-09 18   15.8    74.2     937    4   115          
2012-12-09 18   15.8    74.2     937    4   115          
2012-12-09 18   15.8    74.2     937    4   115          
2012-12-10 00   16.3    74.3     937    4   115          
2012-12-10 00   16.3    74.3     937    4   115          
2012-12-10 00   16.3    74.3     937    4   115          
2012-12-10 06   16.9    74.0     937    4   115          
2012-12-10 06   16.9    74.0     937    4   115          
2012-12-10 06   16.9    74.0     937    4   115          
2012-12-10 12   17.5    73.9     941    4   110          
2012-12-10 12   17.5    73.9     941    4   110          
2012-12-10 12   17.5    73.9     941    4   110          
2012-12-10 18   18.1    73.6     944    4   105          
2012-12-10 18   18.1    73.6     944    4   105          
2012-12-10 18   18.1    73.6     944    4   105          
2012-12-11 00   18.8    73.3     956    3    90          
2012-12-11 00   18.8    73.3     956    3    90          
2012-12-11 00   18.8    73.3     956    3    90          
2012-12-11 06   19.5    73.1     963    3    80          
2012-12-11 06   19.5    73.1     963    3    80          
2012-12-11 06   19.5    73.1     963    3    80          
2012-12-11 12   20.2    72.9     974    2    65          
2012-12-11 12   20.2    72.9     974    2    65          
2012-12-11 18   21.0    72.9     978    2    60          
2012-12-11 18   21.0    72.9     978    2    60          
2012-12-12 00   22.0    72.9     985    1    50          
2012-12-12 06   23.4    73.4     989    1    45          
2012-12-12 12   25.0    73.8     993    1    40          
2012-12-12 18   26.4    74.3     993    1    40          
2012-12-13 00   27.6    75.3    1000         30          
2012-12-13 06   28.6    76.7    1000         30          
2012-12-13 12   30.3    77.9    1000         30          
Winds are 1-min average.

Tropical cyclone tracks developed by Michael Bath using data from the Joint Typhoon Warning Centre Best Tracks and Google Maps.


[Australian Severe Weather index] [Copyright Notice] [Email Contacts] [Search This Site] [Privacy Policy]
Document: tropical_cyclone_claudia.htm Updated: 28 June 2017